Time;durP1;ratioP1;P1;durP2;ratioP2;P2;SDS_P1;SDS_P2;PMS_P1;PMS_P2;Temp;Humidity;BMP_temperature;BMP_pressure;BME280_temperature;BME280_humidity;BME280_pressure;Samples;Min_cycle;Max_cycle;Signal;HPM_P1;HPM_P2
2023/10/16 00:00:50;;;;;;;1.23;0.60;;;7.10;99.90;;;;;;4164468;28;20176;-93
2023/10/16 00:02:56;;;;;;;2.37;1.03;;;7.10;99.90;;;;;;4180916;28;20175;-91
2023/10/16 00:04:58;;;;;;;1.90;1.03;;;7.10;99.90;;;;;;4147974;28;20204;-93
2023/10/16 00:07:00;;;;;;;0.90;0.50;;;7.10;99.90;;;;;;4181168;28;20206;-92
2023/10/16 00:09:14;;;;;;;1.63;0.73;;;7.10;99.90;;;;;;4148494;28;20173;-90
2023/10/16 00:11:17;;;;;;;1.50;0.97;;;7.20;99.90;;;;;;4148295;28;20284;-92
2023/10/16 00:13:23;;;;;;;2.00;1.20;;;7.30;99.90;;;;;;4180434;28;20168;-92
2023/10/16 00:15:26;;;;;;;1.93;0.77;;;7.20;99.90;;;;;;4181279;28;20210;-94
2023/10/16 00:17:31;;;;;;;1.57;0.60;;;7.20;99.90;;;;;;4148401;28;20189;-92
2023/10/16 00:19:34;;;;;;;1.60;1.13;;;7.00;99.90;;;;;;4148220;28;20192;-92
2023/10/16 00:21:43;;;;;;;2.50;1.00;;;7.00;99.90;;;;;;4180890;28;20264;-92
2023/10/16 00:23:45;;;;;;;3.43;0.93;;;7.10;99.90;;;;;;4164718;28;20540;-91
2023/10/16 00:25:50;;;;;;;1.63;0.70;;;7.10;99.90;;;;;;4147922;28;20205;-92
2023/10/16 00:27:51;;;;;;;1.83;0.80;;;7.10;99.90;;;;;;4164423;28;20172;-93
2023/10/16 00:29:52;;;;;;;2.17;0.80;;;7.10;99.90;;;;;;4148215;28;20211;-92
2023/10/16 00:31:58;;;;;;;1.63;1.20;;;7.10;99.90;;;;;;4164429;28;20242;-92
2023/10/16 00:33:59;;;;;;;2.67;0.60;;;7.10;99.90;;;;;;4148269;28;20188;-92
2023/10/16 00:36:00;;;;;;;2.33;0.97;;;7.20;99.90;;;;;;4180890;28;20230;-93
2023/10/16 00:38:03;;;;;;;0.73;0.50;;;7.20;99.90;;;;;;4147965;28;20176;-92
2023/10/16 00:40:10;;;;;;;0.83;0.60;;;7.30;99.90;;;;;;4148064;28;20336;-92
2023/10/16 00:42:11;;;;;;;2.50;1.37;;;7.30;99.90;;;;;;4164142;28;20632;-92
2023/10/16 00:44:17;;;;;;;7.60;1.07;;;7.30;99.90;;;;;;4147994;28;20529;-93
2023/10/16 00:46:38;;;;;;;1.30;0.70;;;7.10;99.90;;;;;;4181084;28;20741;-93
2023/10/16 00:48:39;;;;;;;0.90;0.60;;;7.00;99.90;;;;;;4181138;28;20296;-91
2023/10/16 00:50:40;;;;;;;0.83;0.50;;;6.90;99.90;;;;;;4147616;28;20172;-93
2023/10/16 00:52:42;;;;;;;3.50;0.57;;;6.80;99.90;;;;;;4180423;28;20231;-91
2023/10/16 00:54:46;;;;;;;1.23;0.80;;;6.90;99.90;;;;;;4180110;28;20187;-91
2023/10/16 00:56:51;;;;;;;1.87;0.80;;;6.80;99.90;;;;;;4147513;28;20287;-93
2023/10/16 00:58:52;;;;;;;0.70;0.40;;;6.60;99.90;;;;;;4147481;28;20185;-92
2023/10/16 01:00:57;;;;;;;2.70;0.43;;;6.50;99.90;;;;;;4147437;28;20173;-92
2023/10/16 01:02:59;;;;;;;1.90;0.87;;;6.50;99.90;;;;;;4163824;28;20172;-91
2023/10/16 01:05:01;;;;;;;4.47;0.50;;;6.40;99.90;;;;;;4164051;28;20215;-94
2023/10/16 01:07:03;;;;;;;1.10;0.60;;;6.40;99.90;;;;;;4180483;28;20223;-91
2023/10/16 01:09:08;;;;;;;1.13;0.73;;;6.40;99.90;;;;;;4147582;28;20169;-93
2023/10/16 01:13:38;;;;;;;1.07;0.47;;;6.40;99.90;;;;;;4142128;28;20650;-93
2023/10/16 01:16:01;;;;;;;2.87;1.17;;;6.50;99.90;;;;;;4163711;28;20188;-91
2023/10/16 01:18:02;;;;;;;1.50;0.50;;;6.50;99.90;;;;;;4164035;28;20184;-92
2023/10/16 01:20:03;;;;;;;2.53;0.63;;;6.60;99.90;;;;;;4163958;28;20192;-92
2023/10/16 01:22:04;;;;;;;2.80;0.77;;;6.60;99.90;;;;;;4163921;28;20175;-92
2023/10/16 01:24:12;;;;;;;2.97;1.10;;;6.70;99.90;;;;;;4163824;28;20180;-93
2023/10/16 01:26:15;;;;;;;2.07;0.80;;;6.70;99.90;;;;;;4199585;28;20222;-92
2023/10/16 01:28:17;;;;;;;2.43;0.73;;;6.70;99.90;;;;;;4150388;28;20177;-93
2023/10/16 01:30:19;;;;;;;0.70;0.60;;;6.80;99.90;;;;;;4166781;28;20180;-92
2023/10/16 01:32:20;;;;;;;1.80;1.00;;;6.80;99.90;;;;;;4150155;28;20184;-92
2023/10/16 01:34:22;;;;;;;1.17;0.90;;;6.80;99.90;;;;;;4150403;28;20177;-92
2023/10/16 01:36:23;;;;;;;3.60;1.50;;;6.80;99.90;;;;;;4150141;28;20193;-91
2023/10/16 01:38:27;;;;;;;2.37;1.03;;;6.70;99.90;;;;;;4166649;28;20632;-93
2023/10/16 01:40:28;;;;;;;2.07;1.47;;;6.70;99.90;;;;;;4150572;28;20177;-90
2023/10/16 01:42:29;;;;;;;1.50;1.17;;;6.80;99.90;;;;;;4199571;28;20209;-92
2023/10/16 01:44:30;;;;;;;1.73;0.77;;;6.80;99.90;;;;;;4150239;28;20260;-92
2023/10/16 01:46:31;;;;;;;3.00;1.27;;;6.80;99.90;;;;;;4166281;28;20250;-93
2023/10/16 01:48:32;;;;;;;0.80;0.50;;;6.80;99.90;;;;;;4166661;28;20560;-91
2023/10/16 01:50:33;;;;;;;9.60;1.63;;;6.70;99.90;;;;;;4183131;28;20690;-92
2023/10/16 01:52:34;;;;;;;1.13;0.70;;;6.70;99.90;;;;;;4182945;28;20266;-91
2023/10/16 01:54:37;;;;;;;2.23;0.73;;;6.90;99.90;;;;;;4150492;28;20797;-93
2023/10/16 01:56:38;;;;;;;0.83;0.60;;;6.90;99.90;;;;;;4149961;28;20635;-91
2023/10/16 01:58:41;;;;;;;2.37;1.00;;;6.80;99.90;;;;;;4149982;28;20247;-92
2023/10/16 02:00:45;;;;;;;1.73;0.90;;;6.80;99.90;;;;;;4166725;28;20595;-94
2023/10/16 02:02:46;;;;;;;1.47;0.97;;;6.80;99.90;;;;;;4166429;28;20172;-91
2023/10/16 02:04:47;;;;;;;2.87;0.77;;;6.70;99.90;;;;;;4166518;28;20184;-91
2023/10/16 02:06:48;;;;;;;5.00;0.97;;;6.80;99.90;;;;;;4182987;28;20253;-92
2023/10/16 02:08:50;;;;;;;1.33;1.00;;;6.80;99.90;;;;;;4150218;28;20604;-91
2023/10/16 02:10:52;;;;;;;3.70;1.03;;;6.70;99.90;;;;;;4182955;28;20248;-92
2023/10/16 02:12:53;;;;;;;2.47;1.37;;;6.70;99.90;;;;;;4182375;28;20211;-93
2023/10/16 02:14:53;;;;;;;2.50;1.23;;;6.70;99.90;;;;;;4166379;28;20171;-93
2023/10/16 02:16:56;;;;;;;2.90;1.00;;;6.70;99.90;;;;;;4166341;28;20201;-94
2023/10/16 02:18:57;;;;;;;0.90;0.73;;;6.70;99.90;;;;;;4149806;28;20192;-92
2023/10/16 02:20:59;;;;;;;1.07;0.87;;;6.70;99.90;;;;;;4149999;28;20665;-91
2023/10/16 02:23:00;;;;;;;2.47;1.10;;;6.50;99.90;;;;;;4149544;28;20169;-91
2023/10/16 02:25:01;;;;;;;0.67;0.60;;;6.50;99.90;;;;;;4149806;28;20219;-92
2023/10/16 02:27:02;;;;;;;1.83;0.97;;;6.50;99.90;;;;;;4165884;28;20224;-92
2023/10/16 02:29:04;;;;;;;6.30;1.40;;;6.40;99.90;;;;;;4166175;28;20267;-93
2023/10/16 02:31:17;;;;;;;1.10;1.00;;;6.50;99.90;;;;;;4149667;28;20181;-92
2023/10/16 02:33:26;;;;;;;1.83;0.97;;;6.50;99.90;;;;;;4149676;28;20168;-93
2023/10/16 02:35:27;;;;;;;5.00;1.33;;;6.50;99.90;;;;;;4182797;28;20163;-93
2023/10/16 02:37:28;;;;;;;3.50;1.20;;;6.50;99.90;;;;;;4149715;28;20665;-91
2023/10/16 02:39:37;;;;;;;1.90;0.93;;;6.50;99.90;;;;;;4166170;28;20229;-93
2023/10/16 02:41:41;;;;;;;1.40;0.77;;;6.50;99.90;;;;;;4165966;28;20207;-92
2023/10/16 02:43:42;;;;;;;1.47;0.77;;;6.50;99.90;;;;;;4149087;28;20177;-90
2023/10/16 02:45:46;;;;;;;1.27;0.70;;;6.60;99.90;;;;;;4198787;28;20571;-92
2023/10/16 02:47:49;;;;;;;1.60;0.77;;;6.60;99.90;;;;;;4149415;28;20173;-93
2023/10/16 02:49:50;;;;;;;1.43;0.97;;;6.50;99.90;;;;;;4166132;28;20215;-93
2023/10/16 02:51:52;;;;;;;0.97;0.70;;;6.50;99.90;;;;;;4149387;28;20236;-92
2023/10/16 02:53:54;;;;;;;1.80;0.90;;;6.50;99.90;;;;;;4165666;28;20238;-93
2023/10/16 02:56:08;;;;;;;3.03;1.13;;;6.60;99.90;;;;;;4149257;28;20165;-92
2023/10/16 02:58:11;;;;;;;1.43;0.73;;;6.60;99.90;;;;;;4149433;28;20180;-93
2023/10/16 03:00:23;;;;;;;1.10;0.90;;;6.60;99.90;;;;;;4182268;28;20179;-91
2023/10/16 03:02:27;;;;;;;2.10;0.90;;;6.60;99.90;;;;;;4165500;28;20168;-92
2023/10/16 03:04:29;;;;;;;8.67;1.23;;;6.60;99.90;;;;;;4165574;28;20187;-93
2023/10/16 03:06:31;;;;;;;2.83;1.27;;;6.60;99.90;;;;;;4149084;28;20306;-92
2023/10/16 03:08:32;;;;;;;1.83;0.90;;;6.60;99.90;;;;;;4149140;28;20204;-93
2023/10/16 03:10:33;;;;;;;3.43;1.30;;;6.60;99.90;;;;;;4165844;28;20187;-91
2023/10/16 03:12:34;;;;;;;1.93;0.80;;;6.60;99.90;;;;;;4165300;28;20175;-92
2023/10/16 03:14:45;;;;;;;0.87;0.70;;;6.60;99.90;;;;;;4165418;28;20180;-91
2023/10/16 03:16:48;;;;;;;1.90;0.63;;;6.70;99.90;;;;;;4165313;28;20264;-93
2023/10/16 03:18:50;;;;;;;4.10;1.20;;;6.70;99.90;;;;;;4165317;28;20176;-93
2023/10/16 03:23:30;;;;;;;1.60;0.70;;;6.60;99.90;;;;;;4148474;28;20179;-91
2023/10/16 03:25:50;;;;;;;2.70;1.30;;;6.60;99.90;;;;;;4148701;28;20218;-91
2023/10/16 03:27:54;;;;;;;1.80;0.77;;;6.60;99.90;;;;;;4181391;28;20171;-94
2023/10/16 03:29:56;;;;;;;3.23;1.40;;;6.60;99.90;;;;;;4181646;28;20325;-92
2023/10/16 03:31:58;;;;;;;2.23;1.10;;;6.60;99.90;;;;;;4148544;28;20545;-91
2023/10/16 03:33:59;;;;;;;1.47;0.90;;;6.70;99.90;;;;;;4181307;28;20643;-91
2023/10/16 03:36:02;;;;;;;2.10;0.77;;;6.60;99.90;;;;;;4148238;28;20255;-91
2023/10/16 03:38:11;;;;;;;2.00;1.10;;;6.60;99.90;;;;;;4164831;28;20172;-92
2023/10/16 03:40:12;;;;;;;1.60;0.87;;;6.40;99.90;;;;;;4148853;28;20271;-93
2023/10/16 03:42:17;;;;;;;1.50;0.83;;;6.40;99.90;;;;;;4164837;28;20164;-93
2023/10/16 03:44:21;;;;;;;1.57;0.67;;;6.20;99.90;;;;;;4164318;28;20747;-93
2023/10/16 03:46:28;;;;;;;5.60;1.40;;;6.20;99.90;;;;;;4148171;28;20268;-92
2023/10/16 03:48:29;;;;;;;1.90;0.80;;;6.20;99.90;;;;;;4180622;28;20669;-92
2023/10/16 03:50:38;;;;;;;1.70;0.70;;;6.30;99.90;;;;;;4148690;28;20173;-93
2023/10/16 03:52:38;;;;;;;4.77;1.20;;;6.30;99.90;;;;;;4148643;28;20168;-92
2023/10/16 03:54:39;;;;;;;2.87;0.73;;;6.40;99.90;;;;;;4148363;28;20180;-92
2023/10/16 03:56:40;;;;;;;0.83;0.60;;;6.40;99.90;;;;;;4181018;28;20722;-93
2023/10/16 03:58:41;;;;;;;1.83;0.90;;;6.40;99.90;;;;;;4148043;28;20200;-92
2023/10/16 04:00:56;;;;;;;1.87;0.97;;;6.50;99.90;;;;;;4148311;28;20268;-94
2023/10/16 04:02:59;;;;;;;2.27;0.60;;;6.60;99.90;;;;;;4148317;28;20173;-93
2023/10/16 04:05:02;;;;;;;1.20;0.93;;;6.50;99.90;;;;;;4148089;28;20224;-92
2023/10/16 04:07:03;;;;;;;1.53;0.93;;;6.50;99.90;;;;;;4180932;28;20357;-93
2023/10/16 04:09:04;;;;;;;0.60;0.40;;;6.40;99.90;;;;;;4164445;28;20267;-92
2023/10/16 04:11:07;;;;;;;2.00;0.70;;;6.30;99.90;;;;;;4164803;28;20576;-93
2023/10/16 04:13:08;;;;;;;1.60;0.73;;;6.30;99.90;;;;;;4147969;28;20180;-93
2023/10/16 04:15:23;;;;;;;1.37;0.87;;;6.20;99.90;;;;;;4148431;28;20181;-92
2023/10/16 04:17:26;;;;;;;1.83;0.83;;;6.20;99.90;;;;;;4180919;28;20230;-92
2023/10/16 04:24:54;;;;;;;0.93;0.43;;;6.10;99.90;;;;;;4115249;28;20595;-93
2023/10/16 04:26:46;;;;;;;1.70;0.83;;;6.10;99.90;;;;;;4122866;28;20259;-93
2023/10/16 04:31:31;;;;;;;1.57;0.63;;;5.90;99.90;;;;;;4180674;28;20292;-93
2023/10/16 04:33:48;;;;;;;2.20;0.80;;;5.90;99.90;;;;;;4164171;28;20180;-93
2023/10/16 04:36:49;;;;;;;2.40;0.67;;;5.80;99.90;;;;;;4164460;28;20179;-92
2023/10/16 04:38:30;;;;;;;1.77;0.60;;;5.70;99.90;;;;;;4164219;28;20172;-93
2023/10/16 04:42:49;;;;;;;1.37;0.60;;;5.70;99.90;;;;;;4148139;28;20177;-93
2023/10/16 04:43:07;;;;;;;2.83;1.10;;;5.70;99.90;;;;;;4164215;28;20194;-92
2023/10/16 04:47:19;;;;;;;2.23;0.60;;;5.80;99.90;;;;;;4164108;28;20337;-91
2023/10/16 04:49:20;;;;;;;2.30;0.83;;;5.80;99.90;;;;;;4147965;28;20195;-93
2023/10/16 04:51:36;;;;;;;2.93;1.00;;;5.90;99.90;;;;;;4164033;28;20176;-92
2023/10/16 04:53:48;;;;;;;2.33;0.80;;;5.90;99.90;;;;;;4164152;28;20226;-92
2023/10/16 04:58:16;;;;;;;2.70;0.97;;;6.00;99.90;;;;;;4163928;28;20172;-93
2023/10/16 05:00:28;;;;;;;1.50;0.70;;;6.10;99.90;;;;;;4165099;28;20211;-92
2023/10/16 05:02:40;;;;;;;11.63;0.70;;;6.00;99.90;;;;;;4167753;28;20172;-93
2023/10/16 05:04:49;;;;;;;1.10;0.87;;;6.00;99.90;;;;;;4151286;28;20207;-92
2023/10/16 05:06:56;;;;;;;1.43;1.00;;;6.00;99.90;;;;;;4150806;28;20200;-91
2023/10/16 05:13:55;;;;;;;4.50;1.10;;;5.90;99.90;;;;;;4130523;28;20184;-92
2023/10/16 05:16:28;;;;;;;1.30;1.00;;;5.80;99.90;;;;;;4182835;28;20236;-92
2023/10/16 05:18:11;;;;;;;2.00;1.07;;;5.80;99.90;;;;;;4183296;28;20202;-91
2023/10/16 06:16:17;;;;;;;6.80;1.80;;;5.80;99.90;;;;;;4186930;28;20195;-90
2023/10/16 06:18:20;;;;;;;1.37;1.20;;;5.80;99.90;;;;;;4188300;28;20174;-89
2023/10/16 06:20:21;;;;;;;1.30;1.10;;;5.80;99.90;;;;;;4176356;28;20188;-89
2023/10/16 06:22:22;;;;;;;5.63;1.80;;;5.80;99.90;;;;;;4155095;28;20204;-89
2023/10/16 06:24:25;;;;;;;2.47;1.43;;;5.80;99.90;;;;;;4171995;28;20176;-90
2023/10/16 06:26:27;;;;;;;2.07;1.37;;;5.90;99.90;;;;;;4171798;28;20248;-89
2023/10/16 06:28:28;;;;;;;3.13;1.37;;;5.90;99.90;;;;;;4171205;28;20175;-89
2023/10/16 06:30:28;;;;;;;1.73;0.77;;;6.00;99.90;;;;;;4169029;28;20652;-86
2023/10/16 06:32:35;;;;;;;4.30;1.87;;;6.00;99.90;;;;;;4171127;28;20212;-93
2023/10/16 06:34:37;;;;;;;1.30;0.97;;;6.10;99.90;;;;;;4157892;28;20256;-90
2023/10/16 06:36:38;;;;;;;6.97;1.20;;;6.20;99.90;;;;;;4161494;28;20197;-92
2023/10/16 06:38:39;;;;;;;2.37;1.33;;;6.20;99.90;;;;;;4158939;28;20175;-89
2023/10/16 06:40:40;;;;;;;1.03;0.90;;;6.30;99.90;;;;;;4157273;28;20177;-89
2023/10/16 06:42:45;;;;;;;3.37;1.10;;;6.40;99.90;;;;;;4191276;28;20687;-94
2023/10/16 06:45:09;;;;;;;2.23;0.90;;;6.50;99.90;;;;;;4175745;28;20181;-88
2023/10/16 06:47:12;;;;;;;3.70;1.63;;;6.60;99.90;;;;;;4161679;28;20197;-95
2023/10/16 06:49:14;;;;;;;3.03;1.40;;;6.70;99.90;;;;;;4157673;28;20208;-92
2023/10/16 06:51:15;;;;;;;3.60;1.30;;;6.80;99.90;;;;;;4193255;28;20155;-89
2023/10/16 06:53:18;;;;;;;4.53;1.33;;;6.90;99.90;;;;;;4158176;28;20183;-89
2023/10/16 06:55:21;;;;;;;1.90;1.23;;;7.00;99.90;;;;;;4175218;28;20178;-94
2023/10/16 06:57:23;;;;;;;1.40;1.03;;;7.10;99.90;;;;;;4158106;28;20204;-90
2023/10/16 06:59:27;;;;;;;2.63;1.50;;;7.20;99.90;;;;;;4156339;28;20653;-93
2023/10/16 07:01:27;;;;;;;2.40;1.10;;;7.30;99.90;;;;;;4170784;28;20176;-94
2023/10/16 07:03:28;;;;;;;1.13;0.63;;;7.40;99.90;;;;;;4156153;28;20165;-90
2023/10/16 07:05:42;;;;;;;1.30;0.80;;;7.40;99.90;;;;;;4155545;28;20216;-88
2023/10/16 07:07:47;;;;;;;5.40;1.07;;;7.30;99.90;;;;;;4172083;28;20176;-89
2023/10/16 07:09:48;;;;;;;1.60;0.97;;;7.30;99.90;;;;;;4174080;28;20252;-95
2023/10/16 07:11:48;;;;;;;1.90;0.90;;;7.20;99.90;;;;;;4175255;28;20176;-94
2023/10/16 07:13:49;;;;;;;1.70;0.80;;;7.30;99.90;;;;;;4156087;28;20190;-93
2023/10/16 07:15:53;;;;;;;1.70;1.20;;;7.30;99.90;;;;;;4171348;28;20169;-95
2023/10/16 07:17:55;;;;;;;3.60;1.17;;;7.40;99.90;;;;;;4154195;28;20180;-90
2023/10/16 07:19:59;;;;;;;1.30;0.70;;;7.50;99.90;;;;;;4169091;28;20188;-88
2023/10/16 07:22:00;;;;;;;0.80;0.60;;;7.50;99.90;;;;;;4152765;28;20173;-90
2023/10/16 07:24:03;;;;;;;2.13;0.80;;;7.60;99.90;;;;;;4171897;28;20168;-94
2023/10/16 07:26:16;;;;;;;0.70;0.60;;;7.50;99.90;;;;;;4170760;28;20584;-94
2023/10/16 07:28:18;;;;;;;1.63;0.77;;;7.50;99.90;;;;;;4155780;28;20560;-94
2023/10/16 07:30:22;;;;;;;2.57;0.87;;;7.60;99.90;;;;;;4169730;28;20820;-89
2023/10/16 07:32:23;;;;;;;2.23;1.10;;;7.70;99.90;;;;;;4153913;28;20172;-89
2023/10/16 07:34:24;;;;;;;3.00;1.10;;;7.80;99.90;;;;;;4155018;28;20187;-94
2023/10/16 07:36:26;;;;;;;1.93;0.97;;;7.80;99.90;;;;;;4155316;28;20200;-94
2023/10/16 07:38:28;;;;;;;2.53;1.00;;;7.80;99.90;;;;;;4152259;28;20220;-93
2023/10/16 07:40:29;;;;;;;2.13;1.10;;;7.90;99.90;;;;;;4151440;28;20273;-91
2023/10/16 07:42:30;;;;;;;11.80;2.00;;;8.00;99.90;;;;;;4185592;28;20179;-87
2023/10/16 07:44:35;;;;;;;3.87;2.10;;;8.20;99.90;;;;;;4150104;28;20165;-86
2023/10/16 07:46:38;;;;;;;3.10;1.97;;;8.30;99.90;;;;;;4150481;28;20217;-93
2023/10/16 07:48:52;;;;;;;2.83;2.03;;;8.50;99.90;;;;;;4152697;28;20169;-95
2023/10/16 07:50:53;;;;;;;4.63;1.73;;;8.70;99.90;;;;;;4167036;28;20238;-87
2023/10/16 07:52:54;;;;;;;4.97;2.50;;;8.90;99.90;;;;;;4167383;28;20249;-88
2023/10/16 07:54:55;;;;;;;7.93;2.05;;;9.10;99.90;;;;;;4167825;28;20623;-90
2023/10/16 07:56:56;;;;;;;3.72;2.35;;;9.40;99.90;;;;;;4182802;28;20253;-89
2023/10/16 07:59:18;;;;;;;7.38;2.92;;;9.90;99.90;;;;;;4168273;28;20180;-89
2023/10/16 08:01:41;;;;;;;3.78;2.35;;;10.40;99.90;;;;;;4184182;28;20171;-89
2023/10/16 08:03:45;;;;;;;4.30;1.75;;;10.60;99.90;;;;;;4167599;28;20180;-89
2023/10/16 08:05:47;;;;;;;4.90;1.85;;;10.50;99.90;;;;;;4151261;28;20200;-89
2023/10/16 08:07:47;;;;;;;4.55;2.42;;;10.50;99.90;;;;;;4185229;28;20223;-94
2023/10/16 08:09:48;;;;;;;4.82;2.05;;;10.70;99.90;;;;;;4168038;28;20172;-89
2023/10/16 08:11:59;;;;;;;5.05;1.80;;;10.90;99.90;;;;;;4168955;28;20180;-89
2023/10/16 08:14:06;;;;;;;4.15;2.17;;;11.30;99.90;;;;;;4171720;28;20667;-89
2023/10/16 08:16:07;;;;;;;6.82;1.75;;;11.50;99.90;;;;;;4152027;28;20200;-94
2023/10/16 08:18:10;;;;;;;2.63;1.60;;;11.60;99.90;;;;;;4186015;28;20178;-93
2023/10/16 08:20:17;;;;;;;7.57;1.52;;;11.60;99.90;;;;;;4187973;28;20202;-89
2023/10/16 08:22:22;;;;;;;2.75;1.48;;;11.70;99.90;;;;;;4188577;28;20171;-94
2023/10/16 08:24:24;;;;;;;5.28;1.70;;;12.30;99.90;;;;;;4188966;28;20203;-89
2023/10/16 08:26:28;;;;;;;3.78;1.50;;;13.00;99.90;;;;;;4169723;28;20216;-89
2023/10/16 08:28:35;;;;;;;3.58;1.35;;;13.50;99.90;;;;;;4170417;28;20172;-93
2023/10/16 08:30:49;;;;;;;3.45;1.35;;;14.10;99.90;;;;;;4155237;28;20179;-90
2023/10/16 08:32:54;;;;;;;6.72;1.35;;;14.50;99.90;;;;;;4189011;28;20187;-96
2023/10/16 08:34:55;;;;;;;4.97;1.30;;;14.70;99.90;;;;;;4169889;28;20176;-93
2023/10/16 08:36:56;;;;;;;4.03;1.73;;;14.90;99.90;;;;;;4172746;28;20634;-93
2023/10/16 08:38:57;;;;;;;6.38;2.33;;;14.90;99.90;;;;;;4156556;28;20172;-92
2023/10/16 08:40:59;;;;;;;3.33;1.73;;;14.60;99.90;;;;;;4156276;28;20687;-89
2023/10/16 08:43:01;;;;;;;2.53;1.63;;;14.70;99.90;;;;;;4188121;28;20183;-89
2023/10/16 08:45:14;;;;;;;4.18;1.10;;;14.70;99.90;;;;;;4157647;28;20176;-90
2023/10/16 08:47:24;;;;;;;2.33;1.17;;;14.80;99.90;;;;;;4155565;28;20259;-90
2023/10/16 08:49:25;;;;;;;5.65;1.50;;;15.10;99.90;;;;;;4173250;28;20184;-94
2023/10/16 08:51:28;;;;;;;4.18;1.30;;;15.10;99.90;;;;;;4171083;28;20172;-90
2023/10/16 08:53:36;;;;;;;4.85;1.75;;;15.10;99.90;;;;;;4171277;28;20178;-94
2023/10/16 08:55:37;;;;;;;6.85;2.30;;;15.00;99.90;;;;;;4172940;28;20168;-93
2023/10/16 08:57:41;;;;;;;6.88;2.08;;;14.50;99.90;;;;;;4180336;28;20749;-93
2023/10/16 08:59:47;;;;;;;4.68;1.95;;;13.60;99.90;;;;;;4202048;28;20178;-88
2023/10/16 09:01:48;;;;;;;11.25;2.05;;;14.00;99.90;;;;;;4178052;28;20239;-89
2023/10/16 09:03:56;;;;;;;5.30;1.52;;;14.50;99.90;;;;;;4165431;28;20175;-95
2023/10/16 09:06:01;;;;;;;5.97;1.92;;;14.50;99.90;;;;;;4196404;28;20898;-88
2023/10/16 09:08:03;;;;;;;7.43;2.08;;;14.40;99.90;;;;;;4175527;28;20172;-87
2023/10/16 09:10:10;;;;;;;4.90;1.70;;;13.50;99.90;;;;;;4175724;28;20160;-88
2023/10/16 09:12:11;;;;;;;11.35;2.05;;;13.50;99.90;;;;;;4159717;28;20172;-88
2023/10/16 09:14:16;;;;;;;5.80;1.75;;;13.80;99.90;;;;;;4172830;28;20277;-91
2023/10/16 09:16:23;;;;;;;4.18;1.92;;;14.10;99.90;;;;;;4154724;28;20245;-95
2023/10/16 09:18:27;;;;;;;2.97;1.40;;;14.10;99.90;;;;;;4171032;28;20186;-88
2023/10/16 09:20:40;;;;;;;5.70;1.98;;;14.00;99.90;;;;;;4154576;28;20219;-87
2023/10/16 09:22:47;;;;;;;7.72;1.42;;;13.80;99.90;;;;;;4171288;28;20167;-89
2023/10/16 09:24:51;;;;;;;3.25;1.63;;;13.10;99.90;;;;;;4188110;28;20568;-88
2023/10/16 09:26:54;;;;;;;7.00;1.65;;;12.60;99.90;;;;;;4187026;28;20223;-88
2023/10/16 09:29:04;;;;;;;5.28;1.30;;;12.50;99.90;;;;;;4154247;28;20165;-88
2023/10/16 09:31:06;;;;;;;3.45;1.40;;;12.70;99.90;;;;;;4170511;28;20194;-88
2023/10/16 09:33:10;;;;;;;0.77;0.75;;;13.00;99.90;;;;;;4154165;28;20164;-88
2023/10/16 09:35:13;;;;;;;9.60;1.30;;;13.20;99.90;;;;;;4170593;28;20168;-96
2023/10/16 09:37:16;;;;;;;3.00;1.13;;;13.00;99.90;;;;;;4171226;28;20192;-89
2023/10/16 09:39:17;;;;;;;2.20;1.02;;;13.20;99.90;;;;;;4170966;28;20165;-88
2023/10/16 09:43:27;;;;;;;2.65;1.42;;;13.60;99.90;;;;;;4186497;28;20205;-88
2023/10/16 09:45:29;;;;;;;7.25;2.20;;;13.30;99.90;;;;;;4169499;28;20333;-87
2023/10/16 09:47:35;;;;;;;2.95;1.58;;;13.00;99.90;;;;;;4166935;28;20206;-89
2023/10/16 09:49:37;;;;;;;2.95;1.65;;;12.90;99.90;;;;;;4200051;28;20658;-90
2023/10/16 09:51:39;;;;;;;3.42;1.30;;;13.20;99.90;;;;;;4184864;28;20226;-95
2023/10/16 09:53:40;;;;;;;1.70;0.93;;;13.40;99.90;;;;;;4184323;28;20201;-89
2023/10/16 09:55:45;;;;;;;1.10;0.77;;;13.70;99.90;;;;;;4168205;28;20176;-96
2023/10/16 09:57:54;;;;;;;1.90;0.80;;;13.70;99.90;;;;;;4151610;28;20165;-89
2023/10/16 10:00:00;;;;;;;6.20;1.30;;;13.70;99.90;;;;;;4169190;28;20172;-90
2023/10/16 10:02:05;;;;;;;3.05;0.70;;;13.70;99.90;;;;;;4168216;28;20168;-89
2023/10/16 10:04:07;;;;;;;1.42;0.50;;;13.60;99.90;;;;;;4201150;28;20182;-90
2023/10/16 10:06:09;;;;;;;1.60;0.85;;;13.70;99.90;;;;;;4167303;28;20251;-89
2023/10/16 10:08:17;;;;;;;1.63;0.85;;;13.70;99.90;;;;;;4185589;28;20596;-88
2023/10/16 10:12:42;;;;;;;3.97;0.95;;;12.70;99.90;;;;;;4173049;28;20203;-95
2023/10/16 10:14:48;;;;;;;1.95;0.68;;;12.50;99.90;;;;;;4170124;28;20214;-88
2023/10/16 10:16:56;;;;;;;1.77;0.90;;;12.60;99.90;;;;;;4153121;28;20200;-88
2023/10/16 10:19:01;;;;;;;2.05;0.95;;;12.80;99.90;;;;;;4151993;28;20190;-89
2023/10/16 10:21:11;;;;;;;0.95;0.70;;;12.80;99.90;;;;;;4186729;28;20195;-89
2023/10/16 10:23:15;;;;;;;3.53;1.23;;;12.70;99.90;;;;;;4171008;28;20236;-89
2023/10/16 10:25:26;;;;;;;1.30;0.90;;;12.80;99.90;;;;;;4168139;28;20617;-88
2023/10/16 10:27:28;;;;;;;3.83;0.98;;;13.40;99.90;;;;;;4168564;28;20195;-88
2023/10/16 10:29:29;;;;;;;2.10;1.10;;;13.70;99.90;;;;;;4167885;28;20541;-89
2023/10/16 10:31:31;;;;;;;2.22;1.08;;;13.70;99.90;;;;;;4151596;28;20168;-89
2023/10/16 10:33:37;;;;;;;3.22;0.93;;;13.90;99.90;;;;;;4183704;28;20183;-88
2023/10/16 10:35:38;;;;;;;1.27;1.02;;;13.40;99.90;;;;;;4167645;28;20179;-88
2023/10/16 10:37:51;;;;;;;4.80;1.38;;;13.80;99.90;;;;;;4184421;28;20268;-89
2023/10/16 10:40:15;;;;;;;2.55;1.10;;;13.70;99.90;;;;;;4150711;28;20636;-88
2023/10/16 10:42:16;;;;;;;5.85;0.85;;;14.20;99.90;;;;;;4150273;28;20172;-88
2023/10/16 10:44:21;;;;;;;6.57;1.35;;;14.40;99.90;;;;;;4150522;28;20253;-88
2023/10/16 10:46:21;;;;;;;2.10;1.00;;;14.50;99.90;;;;;;4169262;28;20222;-88
2023/10/16 10:48:24;;;;;;;4.35;1.17;;;14.30;99.90;;;;;;4150105;28;20168;-88
2023/10/16 10:50:27;;;;;;;6.35;1.65;;;14.50;99.90;;;;;;4149925;28;20177;-88
2023/10/16 10:52:34;;;;;;;1.95;1.02;;;14.80;99.90;;;;;;4150444;28;20338;-96
2023/10/16 10:54:35;;;;;;;4.47;1.10;;;14.40;99.90;;;;;;4150071;28;20629;-96
2023/10/16 10:56:48;;;;;;;4.47;1.85;;;14.30;99.90;;;;;;4184230;28;20254;-88
2023/10/16 10:58:49;;;;;;;3.08;1.30;;;13.90;99.90;;;;;;4167117;28;20203;-88
2023/10/16 11:00:50;;;;;;;3.63;1.63;;;13.60;99.90;;;;;;4151348;28;20175;-89
2023/10/16 11:05:07;;;;;;;2.70;0.88;;;13.70;99.90;;;;;;4184263;28;20174;-88
2023/10/16 11:07:11;;;;;;;4.18;1.42;;;14.00;99.90;;;;;;4166453;28;20200;-88
2023/10/16 11:09:12;;;;;;;4.93;1.05;;;14.40;99.90;;;;;;4182740;28;20202;-88
2023/10/16 11:11:15;;;;;;;1.13;0.60;;;14.40;99.90;;;;;;4166253;28;20176;-87
2023/10/16 11:13:18;;;;;;;3.58;0.50;;;14.60;99.90;;;;;;4150305;28;20169;-87
2023/10/16 11:15:19;;;;;;;1.65;0.60;;;14.50;99.90;;;;;;4149530;28;20796;-88
2023/10/16 11:17:40;;;;;;;5.43;0.57;;;14.40;99.90;;;;;;4165847;28;20214;-88
2023/10/16 11:19:49;;;;;;;2.13;0.50;;;14.10;99.90;;;;;;4150401;28;20187;-88
2023/10/16 11:21:50;;;;;;;3.85;0.43;;;14.10;99.90;;;;;;4182647;28;20183;-88
2023/10/16 11:23:55;;;;;;;0.80;0.45;;;14.00;99.90;;;;;;4150210;28;20177;-88
2023/10/16 11:25:56;;;;;;;3.05;0.88;;;13.80;99.90;;;;;;4182447;28;20218;-89
2023/10/16 11:28:06;;;;;;;5.63;0.30;;;13.70;99.90;;;;;;4165938;28;20168;-94
2023/10/16 11:30:18;;;;;;;0.80;0.50;;;13.70;99.90;;;;;;4149864;28;20168;-88
2023/10/16 11:32:25;;;;;;;2.63;0.35;;;13.60;99.90;;;;;;4150192;28;20177;-93
2023/10/16 11:34:26;;;;;;;0.70;0.20;;;13.60;99.90;;;;;;4150559;28;20252;-89
2023/10/16 11:36:36;;;;;;;0.47;0.17;;;13.60;99.90;;;;;;4167444;28;20196;-88
2023/10/16 11:38:37;;;;;;;0.20;0.10;;;13.50;99.90;;;;;;4149228;28;20227;-87
2023/10/16 11:40:42;;;;;;;7.32;0.77;;;13.40;99.90;;;;;;4184139;28;20547;-88
2023/10/16 11:42:43;;;;;;;1.95;0.63;;;13.40;99.90;;;;;;4165732;28;20620;-88
2023/10/16 11:44:44;;;;;;;4.30;0.17;;;13.40;99.90;;;;;;4165969;28;20183;-88
2023/10/16 11:46:46;;;;;;;0.57;0.15;;;13.50;99.90;;;;;;4165876;28;20200;-88
2023/10/16 11:48:49;;;;;;;3.15;0.20;;;13.70;99.90;;;;;;4169368;28;20170;-89
2023/10/16 11:50:51;;;;;;;0.28;0.17;;;13.80;99.90;;;;;;4149513;28;20188;-88
2023/10/16 11:52:54;;;;;;;1.48;0.40;;;13.80;99.90;;;;;;4148602;28;20177;-90
2023/10/16 11:54:58;;;;;;;2.92;0.10;;;13.60;99.90;;;;;;4181477;28;20171;-88
2023/10/16 11:56:59;;;;;;;1.55;0.55;;;13.80;99.90;;;;;;4165349;28;20196;-95
2023/10/16 11:59:03;;;;;;;0.30;0.00;;;13.90;99.90;;;;;;4165968;28;20571;-88
2023/10/16 12:01:11;;;;;;;1.10;0.20;;;14.00;99.90;;;;;;4149851;28;20234;-87
2023/10/16 12:03:15;;;;;;;0.10;0.10;;;13.90;99.90;;;;;;4182071;28;20650;-90
2023/10/16 12:05:15;;;;;;;0.45;0.17;;;13.90;99.90;;;;;;4149102;28;20201;-88
2023/10/16 12:07:17;;;;;;;0.77;0.17;;;14.10;99.90;;;;;;4165107;28;20690;-87
2023/10/16 12:09:19;;;;;;;6.30;1.05;;;14.00;99.90;;;;;;4165138;28;20274;-88
2023/10/16 12:11:20;;;;;;;0.77;0.10;;;14.00;99.90;;;;;;4149364;28;20176;-88
2023/10/16 12:13:21;;;;;;;0.80;0.30;;;14.10;99.90;;;;;;4165771;28;20564;-88
2023/10/16 12:15:25;;;;;;;2.13;0.13;;;14.10;99.90;;;;;;4149806;28;20165;-88
2023/10/16 12:17:28;;;;;;;1.90;0.60;;;14.00;99.90;;;;;;4181994;28;20722;-88